createdAt,value
2023-01-28T00:00:00.050Z,1.00
2023-01-28T00:02:27.954Z,1.00
2023-01-28T00:04:55.733Z,1.00
2023-01-28T00:07:23.983Z,0.90
2023-01-28T00:09:51.918Z,0.90
2023-01-28T00:12:19.629Z,0.90
2023-01-28T00:14:48.807Z,0.90
2023-01-28T00:17:16.517Z,0.90
2023-01-28T00:19:44.804Z,0.90
2023-01-28T00:22:12.510Z,0.90
2023-01-28T00:24:40.184Z,0.80
2023-01-28T00:27:07.952Z,0.80
2023-01-28T00:29:35.674Z,0.80
2023-01-28T00:32:04.894Z,0.80
2023-01-28T00:34:32.656Z,0.80
2023-01-28T00:37:00.358Z,0.80
2023-01-28T00:39:28.527Z,0.80
2023-01-28T00:41:56.229Z,0.80
2023-01-28T00:44:24.030Z,0.80
2023-01-28T00:46:51.851Z,0.80
2023-01-28T00:49:20.866Z,0.80
2023-01-28T00:51:49.087Z,0.70
2023-01-28T00:54:17.031Z,0.70
2023-01-28T00:56:44.763Z,0.70
2023-01-28T00:59:13.433Z,0.80
2023-01-28T01:01:41.202Z,0.80
2023-01-28T01:04:08.919Z,0.70
2023-01-28T01:06:40.457Z,0.70
2023-01-28T01:09:11.492Z,0.70
2023-01-28T01:11:39.232Z,0.70
2023-01-28T01:14:07.082Z,0.70
2023-01-28T01:16:36.095Z,0.70
2023-01-28T01:19:04.561Z,0.70
2023-01-28T01:21:32.818Z,0.70
2023-01-28T01:24:01.883Z,0.70
2023-01-28T01:26:29.859Z,0.70
2023-01-28T01:28:57.556Z,0.60
2023-01-28T01:31:25.368Z,0.70
2023-01-28T01:33:53.645Z,0.60
2023-01-28T01:36:22.011Z,0.60
2023-01-28T01:38:54.033Z,0.60
2023-01-28T01:41:28.978Z,0.60
2023-01-28T01:43:58.779Z,0.50
2023-01-28T01:46:34.287Z,0.50
2023-01-28T01:49:09.230Z,0.50
2023-01-28T01:51:38.636Z,0.50
2023-01-28T01:54:06.784Z,0.50
2023-01-28T01:56:40.327Z,0.40
2023-01-28T01:59:12.767Z,0.50
2023-01-28T02:01:41.449Z,0.50
2023-01-28T02:04:13.990Z,0.50
2023-01-28T02:06:42.830Z,0.40
2023-01-28T02:09:24.260Z,0.40
2023-01-28T02:11:56.333Z,0.40
2023-01-28T02:14:31.549Z,0.40
2023-01-28T02:17:00.600Z,0.40
2023-01-28T02:19:37.093Z,0.40
2023-01-28T02:22:22.887Z,0.30
2023-01-28T02:25:01.420Z,0.40
2023-01-28T02:27:36.439Z,0.30
2023-01-28T02:30:11.998Z,0.30
2023-01-28T02:32:46.646Z,0.30
2023-01-28T02:35:19.135Z,0.30
2023-01-28T02:37:51.009Z,0.30
2023-01-28T02:40:23.691Z,0.20
2023-01-28T02:42:52.164Z,0.20
2023-01-28T02:45:24.520Z,0.20
2023-01-28T02:47:58.412Z,0.20
2023-01-28T02:50:36.778Z,0.10
2023-01-28T02:53:35.471Z,0.00
2023-01-28T02:56:15.547Z,0.00
2023-01-28T02:58:48.593Z,0.00
2023-01-28T03:01:24.481Z,0.00
2023-01-28T03:04:00.815Z,-0.10
2023-01-28T03:06:36.314Z,-0.10
2023-01-28T03:09:26.876Z,-0.10
2023-01-28T03:12:16.434Z,0.00
2023-01-28T03:15:06.004Z,0.00
2023-01-28T03:17:58.278Z,0.00
2023-01-28T03:20:45.260Z,0.00
2023-01-28T03:23:37.084Z,0.00
2023-01-28T03:26:23.843Z,0.00
2023-01-28T03:29:10.304Z,0.00
2023-01-28T03:31:56.680Z,0.00
2023-01-28T03:34:43.380Z,0.00
2023-01-28T03:37:14.679Z,0.00
2023-01-28T03:39:42.543Z,0.00
2023-01-28T03:42:12.912Z,-0.10
2023-01-28T03:44:57.218Z,-0.10
2023-01-28T03:47:26.773Z,-0.10
2023-01-28T03:49:56.986Z,-0.10
2023-01-28T03:52:26.606Z,-0.10
2023-01-28T03:54:54.328Z,-0.10
2023-01-28T03:57:24.797Z,-0.20
2023-01-28T03:59:53.224Z,-0.20
2023-01-28T04:02:23.360Z,-0.20
2023-01-28T04:04:51.267Z,-0.20
2023-01-28T04:07:20.303Z,-0.20
2023-01-28T04:09:48.019Z,-0.20
2023-01-28T04:12:15.709Z,-0.30
2023-01-28T04:14:44.202Z,-0.20
2023-01-28T04:17:11.893Z,-0.30
2023-01-28T04:19:40.276Z,-0.30
2023-01-28T04:22:12.024Z,-0.30
2023-01-28T04:24:41.081Z,-0.30
2023-01-28T04:27:08.764Z,-0.30
2023-01-28T04:29:36.437Z,-0.30
2023-01-28T04:32:04.214Z,-0.30
2023-01-28T04:34:31.901Z,-0.30
2023-01-28T04:36:59.589Z,-0.30
2023-01-28T04:39:27.270Z,-0.30
2023-01-28T04:41:56.296Z,-0.30
2023-01-28T04:44:23.989Z,-0.30
2023-01-28T04:46:51.766Z,-0.20
2023-01-28T04:49:19.477Z,-0.20
2023-01-28T04:51:47.179Z,-0.20
2023-01-28T04:54:14.881Z,-0.20
2023-01-28T04:56:42.577Z,-0.20
2023-01-28T04:59:11.610Z,-0.10
2023-01-28T05:01:39.404Z,-0.10
2023-01-28T05:04:07.781Z,-0.10
2023-01-28T05:06:35.538Z,-0.10
2023-01-28T05:09:03.216Z,-0.10
2023-01-28T05:11:30.928Z,-0.10
2023-01-28T05:13:58.604Z,-0.10
2023-01-28T05:16:27.684Z,-0.10
2023-01-28T05:18:55.400Z,0.00
2023-01-28T05:21:23.099Z,-0.10
2023-01-28T05:23:50.832Z,0.00
2023-01-28T05:26:18.510Z,0.00
2023-01-28T05:28:46.246Z,0.00
2023-01-28T05:31:14.047Z,0.00
2023-01-28T05:33:43.070Z,0.00
2023-01-28T05:36:10.822Z,0.00
2023-01-28T05:38:38.519Z,0.10
2023-01-28T05:41:06.326Z,0.10
2023-01-28T05:43:34.032Z,0.10
2023-01-28T05:46:01.816Z,0.00
2023-01-28T05:48:29.562Z,0.10
2023-01-28T05:50:58.584Z,0.00
2023-01-28T05:53:26.310Z,0.10
2023-01-28T05:55:54.855Z,0.00
2023-01-28T05:58:23.030Z,0.10
2023-01-28T06:00:50.734Z,0.00
2023-01-28T06:03:18.417Z,0.00
2023-01-28T06:05:46.082Z,0.10
2023-01-28T06:08:15.175Z,0.00
2023-01-28T06:10:42.907Z,0.10
2023-01-28T06:13:10.613Z,0.00
2023-01-28T06:15:38.382Z,0.10
2023-01-28T06:18:06.269Z,0.10
2023-01-28T06:20:33.994Z,0.10
2023-01-28T06:23:01.695Z,0.10
2023-01-28T06:25:30.756Z,0.20
2023-01-28T06:27:58.442Z,0.10
2023-01-28T06:30:26.135Z,0.10
2023-01-28T06:32:57.604Z,0.10
2023-01-28T06:35:25.482Z,0.10
2023-01-28T06:37:53.799Z,0.10
2023-01-28T06:40:22.739Z,0.10
2023-01-28T06:42:51.789Z,0.20
2023-01-28T06:45:19.985Z,0.10
2023-01-28T06:47:47.676Z,0.10
2023-01-28T06:50:15.731Z,0.20
2023-01-28T06:52:43.607Z,0.20
2023-01-28T06:55:11.336Z,0.10
2023-01-28T06:57:39.513Z,0.10
2023-01-28T07:00:11.167Z,0.10
2023-01-28T07:02:38.907Z,0.10
2023-01-28T07:05:07.612Z,0.10
2023-01-28T07:07:35.475Z,0.10
2023-01-28T07:10:03.228Z,0.10
2023-01-28T07:12:30.958Z,0.10
2023-01-28T07:14:58.653Z,0.10
2023-01-28T07:17:27.773Z,0.10
2023-01-28T07:19:55.515Z,0.10
2023-01-28T07:22:23.239Z,0.10
2023-01-28T07:24:51.405Z,0.10
2023-01-28T07:27:19.126Z,0.10
2023-01-28T07:29:46.850Z,0.10
2023-01-28T07:32:14.560Z,0.10
2023-01-28T07:34:43.611Z,0.10
2023-01-28T07:37:11.488Z,0.10
2023-01-28T07:39:39.250Z,0.10
2023-01-28T07:42:07.433Z,0.10
2023-01-28T07:44:35.800Z,0.10
2023-01-28T07:47:03.587Z,0.10
2023-01-28T07:49:31.372Z,0.10
2023-01-28T07:52:00.581Z,0.10
2023-01-28T07:54:28.406Z,0.10
2023-01-28T07:56:56.113Z,0.10
2023-01-28T07:59:24.109Z,0.20
2023-01-28T08:01:54.938Z,0.20
2023-01-28T08:04:23.128Z,0.20
2023-01-28T08:06:52.188Z,0.20
2023-01-28T08:09:21.367Z,0.20
2023-01-28T08:11:49.069Z,0.20
2023-01-28T08:14:16.875Z,0.20
2023-01-28T08:16:44.603Z,0.20
2023-01-28T08:19:12.589Z,0.20
2023-01-28T08:21:40.367Z,0.20
2023-01-28T08:24:08.616Z,0.20
2023-01-28T08:26:37.667Z,0.20
2023-01-28T08:29:05.636Z,0.20
2023-01-28T08:31:33.362Z,0.20
2023-01-28T08:34:02.325Z,0.20
2023-01-28T08:36:30.192Z,0.20
2023-01-28T08:38:57.939Z,0.30
2023-01-28T08:41:25.811Z,0.20
2023-01-28T08:43:54.960Z,0.30
2023-01-28T08:46:22.804Z,0.20
2023-01-28T08:48:50.965Z,0.20
2023-01-28T08:51:18.902Z,0.20
2023-01-28T08:53:46.621Z,0.20
2023-01-28T08:56:14.389Z,0.20
2023-01-28T08:58:42.194Z,0.30
2023-01-28T09:01:11.262Z,0.30
2023-01-28T09:03:38.987Z,0.30
2023-01-28T09:06:07.669Z,0.30
2023-01-28T09:08:35.391Z,0.30
2023-01-28T09:11:03.109Z,0.30
2023-01-28T09:13:31.181Z,0.30
2023-01-28T09:15:59.173Z,0.40
2023-01-28T09:18:28.323Z,0.40
2023-01-28T09:20:56.045Z,0.50
2023-01-28T09:23:23.747Z,0.50
2023-01-28T09:25:51.450Z,0.50
2023-01-28T09:28:19.151Z,0.40
2023-01-28T09:30:46.961Z,0.50
2023-01-28T09:33:14.683Z,0.50
2023-01-28T09:35:43.739Z,0.50
2023-01-28T09:38:11.460Z,0.50
2023-01-28T09:40:43.328Z,0.50
2023-01-28T09:43:42.474Z,0.50
2023-01-28T09:46:14.366Z,0.50
2023-01-28T09:48:45.265Z,0.50
2023-01-28T09:51:30.734Z,0.50
2023-01-28T09:54:04.021Z,0.50
2023-01-28T09:56:35.229Z,0.50
2023-01-28T09:59:16.414Z,0.50
2023-01-28T10:01:52.321Z,0.50
2023-01-28T10:04:28.966Z,0.50
2023-01-28T10:07:11.243Z,0.50
2023-01-28T10:09:49.376Z,0.50
2023-01-28T10:12:34.904Z,0.50
2023-01-28T10:15:53.856Z,0.50
2023-01-28T10:18:31.523Z,0.50
2023-01-28T10:21:06.995Z,0.50
2023-01-28T10:23:55.999Z,0.50
2023-01-28T10:26:25.952Z,0.60
2023-01-28T10:28:57.954Z,0.60
2023-01-28T10:31:33.027Z,0.60
2023-01-28T10:34:01.931Z,0.50
2023-01-28T10:36:30.547Z,0.50
2023-01-28T10:38:59.847Z,0.50
2023-01-28T10:41:27.582Z,0.50
2023-01-28T10:43:55.395Z,0.50
2023-01-28T10:46:28.830Z,0.50
2023-01-28T10:49:03.286Z,0.60
2023-01-28T10:51:35.415Z,0.60
2023-01-28T10:54:18.569Z,0.50
2023-01-28T10:56:46.412Z,0.60
2023-01-28T10:59:21.885Z,0.50
2023-01-28T11:01:52.129Z,0.50
2023-01-28T11:04:23.863Z,0.50
2023-01-28T11:07:02.360Z,0.50
2023-01-28T11:09:32.952Z,0.50
2023-01-28T11:12:12.085Z,0.50
2023-01-28T11:14:39.896Z,0.50
2023-01-28T11:17:18.113Z,0.50
2023-01-28T11:19:46.309Z,0.50
2023-01-28T11:22:24.166Z,0.50
2023-01-28T11:24:53.345Z,0.50
2023-01-28T11:27:25.666Z,0.50
2023-01-28T11:29:55.070Z,0.50
2023-01-28T11:32:27.519Z,0.60
2023-01-28T11:34:58.274Z,0.60
2023-01-28T11:37:27.329Z,0.60
2023-01-28T11:40:21.668Z,0.60
2023-01-28T11:42:51.329Z,0.60
2023-01-28T11:45:21.909Z,0.60
2023-01-28T11:48:00.579Z,0.50
2023-01-28T11:50:35.972Z,0.60
2023-01-28T11:53:25.213Z,0.60
2023-01-28T11:56:05.084Z,0.60
2023-01-28T11:58:42.179Z,0.60
2023-01-28T12:01:14.601Z,0.60
2023-01-28T12:04:04.018Z,0.60
2023-01-28T12:06:49.046Z,0.60
2023-01-28T12:09:26.043Z,0.60
2023-01-28T12:12:20.521Z,0.60
2023-01-28T12:15:24.761Z,0.60
2023-01-28T12:18:06.301Z,0.60
2023-01-28T12:20:41.658Z,0.60
2023-01-28T12:23:28.153Z,0.60
2023-01-28T12:26:08.556Z,0.60
2023-01-28T12:28:52.013Z,0.60
2023-01-28T12:31:38.520Z,0.70
2023-01-28T12:34:28.435Z,0.70
2023-01-28T12:37:04.325Z,0.70
2023-01-28T12:39:42.220Z,0.70
2023-01-28T12:42:15.253Z,0.60
2023-01-28T12:44:50.026Z,0.70
2023-01-28T12:47:21.120Z,0.70
2023-01-28T12:49:54.726Z,0.70
2023-01-28T12:52:27.151Z,0.70
2023-01-28T12:55:00.261Z,0.70
2023-01-28T12:57:29.748Z,0.70
2023-01-28T13:00:07.295Z,0.60
2023-01-28T13:02:41.465Z,0.70
2023-01-28T13:05:13.368Z,0.70
2023-01-28T13:07:49.026Z,0.70
2023-01-28T13:10:25.555Z,0.80
2023-01-28T13:12:54.297Z,0.80
2023-01-28T13:15:24.095Z,0.80
2023-01-28T13:17:56.943Z,0.90
2023-01-28T13:20:36.539Z,0.90
2023-01-28T13:23:07.415Z,0.90
2023-01-28T13:25:35.797Z,0.90
2023-01-28T13:28:05.910Z,1.00
2023-01-28T13:30:37.054Z,1.00
2023-01-28T13:33:06.969Z,1.10
2023-01-28T13:35:37.931Z,1.10
2023-01-28T13:38:11.072Z,1.10
2023-01-28T13:40:41.389Z,1.00
2023-01-28T13:43:29.184Z,1.00
2023-01-28T13:45:59.775Z,1.10
2023-01-28T13:48:33.284Z,1.10
2023-01-28T13:51:02.993Z,1.20
2023-01-28T13:53:42.048Z,1.10
2023-01-28T13:56:21.871Z,1.20
2023-01-28T13:59:20.587Z,1.20
2023-01-28T14:02:17.555Z,1.20
2023-01-28T14:05:36.796Z,1.20
2023-01-28T14:08:38.040Z,1.20
2023-01-28T14:11:32.671Z,1.20
2023-01-28T14:14:32.952Z,1.10
2023-01-28T14:17:07.591Z,1.20
2023-01-28T14:19:38.281Z,1.30
2023-01-28T14:22:08.422Z,1.30
2023-01-28T14:24:38.193Z,1.30
2023-01-28T14:27:11.965Z,1.30
2023-01-28T14:29:51.118Z,1.30
2023-01-28T14:32:26.999Z,1.20
2023-01-28T14:34:55.397Z,1.20
2023-01-28T14:37:29.152Z,1.10
2023-01-28T14:40:00.754Z,1.10
2023-01-28T14:42:32.749Z,1.10
2023-01-28T14:45:15.695Z,1.10
2023-01-28T14:48:11.563Z,1.10
2023-01-28T14:50:53.926Z,1.10
2023-01-28T14:53:45.905Z,1.20
2023-01-28T14:56:23.435Z,1.20
2023-01-28T14:58:55.631Z,1.20
2023-01-28T15:01:25.776Z,1.20
2023-01-28T15:03:54.945Z,1.20
2023-01-28T15:06:24.944Z,1.30
2023-01-28T15:08:53.690Z,1.30
2023-01-28T15:11:24.388Z,1.30
2023-01-28T15:13:57.679Z,1.30
2023-01-28T15:16:28.962Z,1.30
2023-01-28T15:19:00.193Z,1.30
2023-01-28T15:21:29.945Z,1.20
2023-01-28T15:23:59.355Z,1.20
2023-01-28T15:26:29.689Z,1.10
2023-01-28T15:28:57.941Z,1.10
2023-01-28T15:31:28.224Z,1.00
2023-01-28T15:34:01.684Z,1.00
2023-01-28T15:36:30.337Z,0.90
2023-01-28T15:38:59.159Z,0.80
2023-01-28T15:41:31.578Z,0.80
2023-01-28T15:43:59.399Z,0.80
2023-01-28T15:46:27.467Z,0.70
2023-01-28T15:49:01.760Z,0.60
2023-01-28T15:51:31.929Z,0.60
2023-01-28T15:54:02.886Z,0.50
2023-01-28T15:56:31.677Z,0.50
2023-01-28T15:59:10.629Z,0.40
2023-01-28T16:01:38.369Z,0.40
2023-01-28T16:04:22.271Z,0.30
2023-01-28T16:06:50.718Z,0.30
2023-01-28T16:09:24.954Z,0.20
2023-01-28T16:11:53.024Z,0.20
2023-01-28T16:14:27.926Z,0.00
2023-01-28T16:16:56.923Z,0.00
2023-01-28T16:19:35.543Z,-0.10
2023-01-28T16:22:03.777Z,-0.20
2023-01-28T16:24:35.769Z,-0.20
2023-01-28T16:27:06.822Z,-0.20
2023-01-28T16:29:34.737Z,-0.20
2023-01-28T16:32:03.664Z,-0.20
2023-01-28T16:34:32.791Z,-0.20
2023-01-28T16:37:01.582Z,-0.20
2023-01-28T16:39:29.844Z,-0.20
2023-01-28T16:41:57.820Z,-0.30
2023-01-28T16:44:25.542Z,-0.30
2023-01-28T16:46:53.277Z,-0.30
2023-01-28T16:49:21.045Z,-0.30
2023-01-28T16:51:50.239Z,-0.30
2023-01-28T16:54:18.340Z,-0.40
2023-01-28T16:56:46.986Z,-0.40
2023-01-28T16:59:16.024Z,-0.40
2023-01-28T17:01:44.287Z,-0.40
2023-01-28T17:04:13.177Z,-0.40
2023-01-28T17:06:44.093Z,-0.30
2023-01-28T17:09:14.076Z,-0.40
2023-01-28T17:11:42.975Z,-0.40
2023-01-28T17:14:11.513Z,-0.40
2023-01-28T17:16:39.586Z,-0.40
2023-01-28T17:19:07.329Z,-0.40
2023-01-28T17:21:35.139Z,-0.40
2023-01-28T17:24:03.063Z,-0.40
2023-01-28T17:26:34.134Z,-0.40
2023-01-28T17:29:02.130Z,-0.50
2023-01-28T17:31:30.006Z,-0.50
2023-01-28T17:33:59.283Z,-0.50
2023-01-28T17:36:28.023Z,-0.60
2023-01-28T17:38:56.120Z,-0.60
2023-01-28T17:41:23.804Z,-0.60
2023-01-28T17:43:53.966Z,-0.70
2023-01-28T17:46:22.975Z,-0.70
2023-01-28T17:48:50.680Z,-0.80
2023-01-28T17:51:19.121Z,-0.80
2023-01-28T17:53:47.881Z,-0.90
2023-01-28T17:56:17.887Z,-0.90
2023-01-28T17:58:49.217Z,-1.00
2023-01-28T18:01:18.457Z,-1.00
2023-01-28T18:03:46.292Z,-1.00
2023-01-28T18:06:14.053Z,-1.00
2023-01-28T18:08:42.023Z,-1.00
2023-01-28T18:11:10.982Z,-1.00
2023-01-28T18:13:39.886Z,-1.00
2023-01-28T18:16:09.532Z,-1.00
2023-01-28T18:18:38.537Z,-1.10
2023-01-28T18:21:08.138Z,-1.10
2023-01-28T18:23:35.839Z,-1.10
2023-01-28T18:26:07.160Z,-1.20
2023-01-28T18:28:34.889Z,-1.20
2023-01-28T18:31:05.888Z,-1.30
2023-01-28T18:33:33.615Z,-1.30
2023-01-28T18:36:02.637Z,-1.30
2023-01-28T18:38:30.334Z,-1.30
2023-01-28T18:40:58.223Z,-1.30
2023-01-28T18:43:26.336Z,-1.30
2023-01-28T18:45:54.106Z,-1.30
2023-01-28T18:48:21.952Z,-1.30
2023-01-28T18:50:53.513Z,-1.30
2023-01-28T18:53:25.527Z,-1.40
2023-01-28T18:55:53.284Z,-1.40
2023-01-28T18:58:21.066Z,-1.40
2023-01-28T19:00:48.797Z,-1.40
2023-01-28T19:03:16.482Z,-1.50
2023-01-28T19:05:44.153Z,-1.50
2023-01-28T19:08:11.847Z,-1.50
2023-01-28T19:10:40.913Z,-1.50
2023-01-28T19:13:08.845Z,-1.60
2023-01-28T19:15:36.552Z,-1.60
2023-01-28T19:18:04.319Z,-1.60
2023-01-28T19:20:32.003Z,-1.70
2023-01-28T19:22:59.711Z,-1.70
2023-01-28T19:25:27.555Z,-1.70
2023-01-28T19:27:56.588Z,-1.70
2023-01-28T19:30:24.302Z,-1.80
2023-01-28T19:32:53.889Z,-1.70
2023-01-28T19:35:21.980Z,-1.80
2023-01-28T19:37:49.655Z,-1.80
2023-01-28T19:40:17.987Z,-1.80
2023-01-28T19:42:45.823Z,-1.80
2023-01-28T19:45:14.902Z,-1.80
2023-01-28T19:47:42.631Z,-1.90
2023-01-28T19:50:11.521Z,-1.90
2023-01-28T19:52:39.514Z,-1.90
2023-01-28T19:55:08.409Z,-1.90
2023-01-28T19:57:36.127Z,-2.00
2023-01-28T20:00:04.652Z,-2.00
2023-01-28T20:02:33.750Z,-2.00
2023-01-28T20:05:01.590Z,-2.10
2023-01-28T20:07:29.306Z,-2.10
2023-01-28T20:09:56.981Z,-2.10
2023-01-28T20:12:24.687Z,-2.20
2023-01-28T20:14:52.365Z,-2.20
2023-01-28T20:17:21.587Z,-2.20
2023-01-28T20:19:50.624Z,-2.20
2023-01-28T20:22:18.310Z,-2.20
2023-01-28T20:24:46.007Z,-2.30
2023-01-28T20:27:13.689Z,-2.30
2023-01-28T20:29:41.477Z,-2.30
2023-01-28T20:32:17.507Z,-2.30
2023-01-28T20:34:47.888Z,-2.30
2023-01-28T20:37:17.069Z,-2.40
2023-01-28T20:39:44.774Z,-2.40
2023-01-28T20:42:13.227Z,-2.40
2023-01-28T20:44:41.225Z,-2.40
2023-01-28T20:47:09.335Z,-2.40
2023-01-28T20:49:37.050Z,-2.50
2023-01-28T20:52:05.576Z,-2.50
2023-01-28T20:54:34.624Z,-2.50
2023-01-28T20:57:02.319Z,-2.50
2023-01-28T20:59:31.676Z,-2.50
2023-01-28T21:02:00.581Z,-2.60
2023-01-28T21:04:28.264Z,-2.60
2023-01-28T21:06:55.971Z,-2.60
2023-01-28T21:09:25.336Z,-2.60
2023-01-28T21:11:54.488Z,-2.60
2023-01-28T21:14:22.248Z,-2.60
2023-01-28T21:16:52.808Z,-2.70
2023-01-28T21:19:20.729Z,-2.70
2023-01-28T21:21:49.008Z,-2.70
2023-01-28T21:24:16.733Z,-2.70
2023-01-28T21:26:44.474Z,-2.80
2023-01-28T21:29:14.528Z,-2.80
2023-01-28T21:31:42.559Z,-2.80
2023-01-28T21:34:10.353Z,-2.80
2023-01-28T21:36:38.057Z,-2.80
2023-01-28T21:39:06.185Z,-2.90
2023-01-28T21:41:34.163Z,-2.90
2023-01-28T21:44:01.887Z,-2.90
2023-01-28T21:46:32.595Z,-2.90
2023-01-28T21:49:01.963Z,-2.90
2023-01-28T21:51:39.038Z,-3.00
2023-01-28T21:54:09.100Z,-3.00
2023-01-28T21:56:36.783Z,-3.00
2023-01-28T21:59:22.147Z,-3.00
2023-01-28T22:01:51.230Z,-3.00
2023-01-28T22:04:19.045Z,-3.00
2023-01-28T22:06:46.900Z,-3.10
2023-01-28T22:09:14.640Z,-3.10
2023-01-28T22:11:44.279Z,-3.10
2023-01-28T22:14:12.752Z,-3.10
2023-01-28T22:16:40.627Z,-3.10
2023-01-28T22:19:10.028Z,-3.20
2023-01-28T22:21:40.897Z,-3.20
2023-01-28T22:24:13.364Z,-3.20
2023-01-28T22:26:42.190Z,-3.20
2023-01-28T22:29:10.619Z,-3.20
2023-01-28T22:31:38.869Z,-3.20
2023-01-28T22:34:07.298Z,-3.30
2023-01-28T22:36:37.181Z,-3.30
2023-01-28T22:39:07.838Z,-3.30
2023-01-28T22:41:35.749Z,-3.30
2023-01-28T22:44:04.212Z,-3.30
2023-01-28T22:46:33.445Z,-3.30
2023-01-28T22:49:01.253Z,-3.40
2023-01-28T22:51:31.056Z,-3.40
2023-01-28T22:54:00.072Z,-3.40
2023-01-28T22:56:29.246Z,-3.40
2023-01-28T22:58:58.090Z,-3.40
2023-01-28T23:01:26.138Z,-3.50
2023-01-28T23:03:55.632Z,-3.50
2023-01-28T23:06:25.415Z,-3.50
2023-01-28T23:08:54.087Z,-3.50
2023-01-28T23:11:27.296Z,-3.50
2023-01-28T23:14:14.337Z,-3.50
2023-01-28T23:16:59.910Z,-3.60
2023-01-28T23:19:45.118Z,-3.60
2023-01-28T23:22:32.110Z,-3.60
2023-01-28T23:24:59.833Z,-3.60
2023-01-28T23:27:28.856Z,-3.60
2023-01-28T23:29:56.548Z,-3.70
2023-01-28T23:32:24.254Z,-3.70
2023-01-28T23:34:51.983Z,-3.70
2023-01-28T23:37:19.784Z,-3.70
2023-01-28T23:39:47.483Z,-3.70
2023-01-28T23:42:17.422Z,-3.70
2023-01-28T23:44:46.561Z,-3.70
2023-01-28T23:47:14.830Z,-3.70
2023-01-28T23:49:42.565Z,-3.70
2023-01-28T23:52:10.535Z,-3.70
2023-01-28T23:54:38.216Z,-3.70
2023-01-28T23:57:06.511Z,-3.80
2023-01-28T23:59:34.191Z,-3.80
